Current Weather

Kayes/Dag-Dag

Kayes/Dag-Dag, Mali (GAKD)

Report from: Monday, February 6, 2023 3:00 AM UTC
Current time: Monday, February 6, 2023 5:55 AM UTC

Nearby weather
Weather history
Weather forecast

Present weatherDust
Temperature20.0°C (68.0°F)
Dew point4.0°C (39.2°F)
Winds 6 kts (3.1 m/s, 6.9 mph) East (80°)
Visibility3.1 mi. (5 km)
Altimeter29.88 in.Hg (1012 mB)
Relative humidity35 %
Density altitude749 ft. (228 m)
Flight conditions Marginal Visual Meteorological Conditions
Raw dataGAKD 060300Z 08006KT 5000 DU NSC 20/04 Q1012
An error has occurred. This application may no longer respond until reloaded. Reload 🗙